Time;durP1;ratioP1;P1;durP2;ratioP2;P2;SDS_P1;SDS_P2;PMS_P1;PMS_P2;Temp;Humidity;BMP_temperature;BMP_pressure;BME280_temperature;BME280_humidity;BME280_pressure;Samples;Min_cycle;Max_cycle;Signal;HPM_P1;HPM_P2
2021/11/03 00:00:21;;;;;;;;;;;;;;;16.84;67.83;101039.50;145002;923;1021;-83
2021/11/03 00:02:48;;;;;;;;;;;;;;;16.86;68.28;101035.22;145002;921;1018;-83
2021/11/03 00:05:15;;;;;;;;;;;;;;;16.81;67.78;101043.84;145002;924;1020;-83
2021/11/03 00:07:42;;;;;;;;;;;;;;;16.76;67.96;101040.31;145002;921;1019;-83
2021/11/03 00:10:09;;;;;;;;;;;;;;;16.77;67.64;101036.84;145002;924;1020;-83
2021/11/03 00:12:35;;;;;;;;;;;;;;;16.77;67.74;101039.47;145002;922;1019;-83
2021/11/03 00:15:01;;;;;;;;;;;;;;;16.77;67.54;101048.19;145002;923;1018;-83
2021/11/03 00:17:27;;;;;;;;;;;;;;;16.75;67.19;101044.69;145002;917;1018;-84
2021/11/03 00:19:53;;;;;;;;;;;;;;;16.76;67.37;101046.41;145002;924;1018;-82
2021/11/03 00:22:19;;;;;;;;;;;;;;;16.76;67.94;101048.19;145002;921;1020;-84
2021/11/03 00:24:46;;;;;;;;;;;;;;;16.78;67.71;101051.69;145002;923;1017;-83
2021/11/03 00:27:12;;;;;;;;;;;;;;;16.76;68.01;101037.69;145001;922;2000;-85
2021/11/03 00:29:38;;;;;;;;;;;;;;;16.78;67.17;101044.72;145002;923;1020;-83
2021/11/03 00:32:08;;;;;;;;;;;;;;;16.79;67.39;101045.59;145002;917;1019;-82
2021/11/03 00:34:34;;;;;;;;;;;;;;;16.78;67.65;101036.84;145002;924;1021;-82
2021/11/03 00:37:00;;;;;;;;;;;;;;;16.78;68.02;101038.56;145002;917;1017;-85
2021/11/03 00:39:29;;;;;;;;;;;;;;;16.74;67.64;101035.06;145002;923;1020;-84
2021/11/03 00:41:55;;;;;;;;;;;;;;;16.74;67.48;101037.66;145002;922;1019;-83
2021/11/03 00:44:22;;;;;;;;;;;;;;;16.74;67.84;101037.66;145002;924;1018;-83
2021/11/03 00:46:48;;;;;;;;;;;;;;;16.74;67.43;101042.03;145002;921;1017;-82
2021/11/03 00:49:14;;;;;;;;;;;;;;;16.72;67.46;101041.13;145002;924;1017;-79
2021/11/03 00:51:41;;;;;;;;;;;;;;;16.72;67.04;101049.00;145002;922;1019;-82
2021/11/03 00:54:07;;;;;;;;;;;;;;;16.71;67.28;101052.50;145002;923;1019;-83
2021/11/03 00:56:34;;;;;;;;;;;;;;;16.69;67.83;101058.59;145002;917;1022;-83
2021/11/03 00:58:59;;;;;;;;;;;;;;;16.68;67.31;101056.81;145002;924;1021;-83
2021/11/03 01:01:26;;;;;;;;;;;;;;;16.69;67.56;101052.47;145002;921;1020;-84
2021/11/03 01:03:52;;;;;;;;;;;;;;;16.68;67.45;101055.97;145002;924;1021;-82
2021/11/03 01:06:18;;;;;;;;;;;;;;;16.68;67.43;101064.69;145002;922;1021;-83
2021/11/03 01:08:44;;;;;;;;;;;;;;;16.69;67.14;101078.69;145002;919;1021;-82
2021/11/03 01:11:10;;;;;;;;;;;;;;;16.68;67.56;101083.03;145002;917;1017;-83
2021/11/03 01:13:36;;;;;;;;;;;;;;;16.68;67.50;101075.19;145002;924;1018;-82
2021/11/03 01:16:02;;;;;;;;;;;;;;;16.67;67.62;101078.69;145002;921;1017;-84
2021/11/03 01:18:29;;;;;;;;;;;;;;;16.65;67.26;101075.13;145002;924;1018;-84
2021/11/03 01:20:56;;;;;;;;;;;;;;;16.60;67.90;101081.22;145002;922;1018;-83
2021/11/03 01:23:22;;;;;;;;;;;;;;;16.60;67.65;101070.72;145002;923;1019;-83
2021/11/03 01:25:49;;;;;;;;;;;;;;;16.60;68.04;101089.06;145002;921;1016;-83
2021/11/03 01:28:16;;;;;;;;;;;;;;;16.59;67.69;101090.84;145002;923;1022;-83
2021/11/03 01:30:42;;;;;;;;;;;;;;;16.58;67.86;101098.69;145002;921;1019;-83
2021/11/03 01:33:08;;;;;;;;;;;;;;;16.56;67.94;101095.13;145002;924;1020;-84
2021/11/03 01:35:34;;;;;;;;;;;;;;;16.53;67.71;101097.72;145002;917;1021;-84
2021/11/03 01:38:00;;;;;;;;;;;;;;;16.49;68.16;101086.34;145002;923;1017;-84
2021/11/03 01:40:28;;;;;;;;;;;;;;;16.38;67.93;101088.81;145002;921;1017;-85
2021/11/03 01:42:54;;;;;;;;;;;;;;;16.32;67.91;101084.41;145002;924;1021;-85
2021/11/03 01:45:23;;;;;;;;;;;;;;;16.33;67.91;101085.28;145002;921;1019;-84
2021/11/03 01:47:54;;;;;;;;;;;;;;;16.36;68.12;101087.94;145002;924;1017;-83
2021/11/03 01:50:43;;;;;;;;;;;;;;;16.37;67.81;101079.22;145002;922;1021;-82
2021/11/03 01:53:19;;;;;;;;;;;;;;;16.39;67.74;101076.63;145002;919;1018;-86
2021/11/03 01:55:59;;;;;;;;;;;;;;;16.39;67.86;101077.50;145002;918;1020;-83
2021/11/03 01:58:29;;;;;;;;;;;;;;;16.40;68.04;101080.97;145002;920;1023;-83
2021/11/03 02:00:56;;;;;;;;;;;;;;;16.42;67.65;101092.38;145002;917;1020;-84
2021/11/03 02:03:25;;;;;;;;;;;;;;;16.40;68.16;101089.75;145002;920;1023;-83
2021/11/03 02:05:53;;;;;;;;;;;;;;;16.38;68.11;101090.56;145002;917;1019;-84
2021/11/03 02:08:20;;;;;;;;;;;;;;;16.38;67.74;101074.84;145002;919;1019;-83
2021/11/03 02:10:46;;;;;;;;;;;;;;;16.39;67.29;101079.25;145001;917;1998;-83
2021/11/03 02:13:12;;;;;;;;;;;;;;;16.39;67.45;101093.22;145002;922;1017;-85
2021/11/03 02:15:39;;;;;;;;;;;;;;;16.39;67.90;101098.44;145002;919;1020;-84
2021/11/03 02:18:05;;;;;;;;;;;;;;;16.39;67.95;101108.06;145002;921;1020;-83
2021/11/03 02:20:31;;;;;;;;;;;;;;;16.38;67.93;101117.63;145001;920;2000;-84
2021/11/03 02:23:35;;;;;;;;;;;;;;;16.38;67.82;101119.38;145002;921;1019;-84
2021/11/03 02:26:33;;;;;;;;;;;;;;;16.40;67.80;101130.75;145002;920;1023;-83
2021/11/03 02:28:59;;;;;;;;;;;;;;;16.39;67.93;101126.41;145002;921;1018;-83
2021/11/03 02:31:33;;;;;;;;;;;;;;;16.40;67.97;101125.53;145002;915;1020;-83
2021/11/03 02:33:59;;;;;;;;;;;;;;;16.39;68.22;101123.78;145002;922;1019;-84
2021/11/03 02:36:25;;;;;;;;;;;;;;;16.38;67.81;101133.34;145002;919;1018;-84
2021/11/03 02:38:51;;;;;;;;;;;;;;;16.39;68.02;101139.50;145001;917;2000;-84
2021/11/03 02:41:20;;;;;;;;;;;;;;;16.39;67.75;101135.13;145002;915;1017;-84
2021/11/03 02:43:50;;;;;;;;;;;;;;;16.38;68.23;101122.00;145002;921;1020;-85
2021/11/03 02:46:17;;;;;;;;;;;;;;;16.39;67.37;101131.66;145002;919;1017;-84
2021/11/03 02:48:43;;;;;;;;;;;;;;;16.38;67.95;101133.34;145002;922;1017;-83
2021/11/03 02:51:14;;;;;;;;;;;;;;;16.38;67.64;101140.34;145002;919;1020;-84
2021/11/03 02:53:42;;;;;;;;;;;;;;;16.38;67.77;101138.59;145002;921;1018;-84
2021/11/03 02:56:09;;;;;;;;;;;;;;;16.37;67.96;101152.59;145002;920;1017;-84
2021/11/03 02:58:36;;;;;;;;;;;;;;;16.36;67.42;101148.19;145002;922;1021;-83
2021/11/03 03:01:13;;;;;;;;;;;;;;;16.37;67.96;101157.81;145002;919;1021;-84
2021/11/03 03:03:39;;;;;;;;;;;;;;;16.37;68.12;101159.53;145002;922;1020;-85
2021/11/03 03:06:06;;;;;;;;;;;;;;;16.37;67.65;101162.16;145002;920;1020;-84
2021/11/03 03:08:32;;;;;;;;;;;;;;;16.37;67.65;101156.91;145002;921;1020;-84
2021/11/03 03:11:01;;;;;;;;;;;;;;;16.36;67.54;101166.53;145002;915;1017;-83
2021/11/03 03:13:27;;;;;;;;;;;;;;;16.35;68.07;101164.75;145002;922;1018;-83
2021/11/03 03:15:53;;;;;;;;;;;;;;;16.33;68.37;101175.22;145002;919;1017;-83
2021/11/03 03:18:19;;;;;;;;;;;;;;;16.32;67.85;101176.09;145002;917;1021;-83
2021/11/03 03:20:48;;;;;;;;;;;;;;;16.32;68.14;101178.72;145002;915;1019;-83
2021/11/03 03:23:14;;;;;;;;;;;;;;;16.27;67.76;101172.53;145002;921;1020;-84
2021/11/03 03:25:41;;;;;;;;;;;;;;;16.22;67.84;101176.81;145002;915;1020;-84
2021/11/03 03:28:07;;;;;;;;;;;;;;;16.22;68.32;101184.69;145002;921;1021;-83
2021/11/03 03:30:34;;;;;;;;;;;;;;;16.20;67.85;101186.41;145002;919;1020;-84
2021/11/03 03:32:59;;;;;;;;;;;;;;;16.21;67.68;101180.31;145002;921;1020;-85
2021/11/03 03:35:25;;;;;;;;;;;;;;;16.19;67.57;101184.62;145002;916;1020;-85
2021/11/03 03:37:51;;;;;;;;;;;;;;;16.19;67.52;101184.62;145002;917;1020;-83
2021/11/03 03:40:17;;;;;;;;;;;;;;;16.18;67.84;101190.75;145002;915;1017;-83
2021/11/03 03:42:43;;;;;;;;;;;;;;;16.19;67.93;101191.62;145002;922;1017;-84
2021/11/03 03:45:10;;;;;;;;;;;;;;;16.19;68.51;101189.87;145002;915;1021;-84
2021/11/03 03:47:37;;;;;;;;;;;;;;;16.20;68.15;101191.62;145002;922;1018;-85
2021/11/03 03:50:04;;;;;;;;;;;;;;;16.25;68.36;101184.72;145002;920;1021;-83
2021/11/03 03:52:30;;;;;;;;;;;;;;;16.31;68.27;101184.81;145001;921;2000;-84
2021/11/03 03:54:56;;;;;;;;;;;;;;;16.38;67.74;101187.50;145002;919;1020;-84
2021/11/03 03:57:22;;;;;;;;;;;;;;;16.41;67.79;101185.81;145002;922;1020;-84
2021/11/03 03:59:48;;;;;;;;;;;;;;;16.44;67.96;101195.47;145002;915;1021;-84
2021/11/03 04:02:14;;;;;;;;;;;;;;;16.43;67.29;101205.06;145002;921;1017;-84
2021/11/03 04:04:40;;;;;;;;;;;;;;;16.38;67.46;101198.84;145001;915;2000;-85
2021/11/03 04:07:06;;;;;;;;;;;;;;;16.33;67.18;101201.41;145002;917;1020;-83
2021/11/03 04:09:32;;;;;;;;;;;;;;;16.31;68.06;101208.38;145002;915;1020;-83
2021/11/03 04:11:58;;;;;;;;;;;;;;;16.27;67.27;101203.97;145002;918;1018;-83
2021/11/03 04:14:24;;;;;;;;;;;;;;;16.26;68.26;101209.19;145002;915;1020;-85
2021/11/03 04:16:50;;;;;;;;;;;;;;;16.25;67.43;101208.28;145002;921;1017;-84
2021/11/03 04:19:16;;;;;;;;;;;;;;;16.24;67.36;101209.16;145002;916;1019;-84
2021/11/03 04:21:42;;;;;;;;;;;;;;;16.24;68.31;101213.50;145002;921;1021;-84
2021/11/03 04:24:08;;;;;;;;;;;;;;;16.23;67.94;101223.13;145002;919;1016;-84
2021/11/03 04:26:35;;;;;;;;;;;;;;;16.23;67.75;101223.13;145002;918;1021;-83
2021/11/03 04:29:02;;;;;;;;;;;;;;;16.22;68.48;101221.34;145002;919;1016;-84
2021/11/03 04:31:28;;;;;;;;;;;;;;;16.22;68.23;101220.47;145002;921;1017;-84
2021/11/03 04:33:54;;;;;;;;;;;;;;;16.21;67.72;101218.69;145002;920;1021;-83
2021/11/03 04:36:21;;;;;;;;;;;;;;;16.20;68.46;101223.06;145002;921;1022;-84
2021/11/03 04:38:48;;;;;;;;;;;;;;;16.19;67.75;101218.69;145002;919;1020;-84
2021/11/03 04:41:15;;;;;;;;;;;;;;;16.18;68.16;101224.78;145002;922;1017;-78
2021/11/03 04:43:41;;;;;;;;;;;;;;;16.17;68.11;101217.78;145002;919;1020;-83
2021/11/03 04:46:07;;;;;;;;;;;;;;;16.16;67.55;101226.50;145002;917;1018;-84
2021/11/03 04:48:33;;;;;;;;;;;;;;;16.14;68.17;101226.47;145002;920;1020;-84
2021/11/03 04:51:01;;;;;;;;;;;;;;;16.13;67.60;101218.62;145002;917;1018;-83
2021/11/03 04:53:28;;;;;;;;;;;;;;;16.11;68.08;101221.22;145001;919;2000;-84
2021/11/03 04:55:54;;;;;;;;;;;;;;;16.10;68.49;101229.03;145002;922;1021;-84
2021/11/03 04:58:21;;;;;;;;;;;;;;;16.09;68.06;101227.28;145002;919;1021;-82
2021/11/03 05:00:48;;;;;;;;;;;;;;;16.10;67.93;101229.03;145002;917;1017;-84
2021/11/03 05:03:14;;;;;;;;;;;;;;;16.09;68.08;101229.87;145002;919;1020;-84
2021/11/03 05:05:40;;;;;;;;;;;;;;;16.00;68.45;101241.09;145002;917;1018;-84
2021/11/03 05:08:06;;;;;;;;;;;;;;;15.97;68.36;101241.03;145002;915;1020;-84
2021/11/03 05:10:32;;;;;;;;;;;;;;;15.96;68.85;101248.03;145002;922;1020;-83
2021/11/03 05:12:58;;;;;;;;;;;;;;;15.98;68.82;101237.56;145002;915;1016;-81
2021/11/03 05:15:25;;;;;;;;;;;;;;;16.06;68.65;101249.03;145002;921;1017;-84
2021/11/03 05:17:51;;;;;;;;;;;;;;;16.17;68.07;101248.34;145002;916;1016;-86
2021/11/03 05:20:17;;;;;;;;;;;;;;;16.27;68.45;101259.00;145002;921;1018;-84
2021/11/03 05:22:44;;;;;;;;;;;;;;;16.36;67.90;101260.84;145002;919;1019;-84
2021/11/03 05:25:10;;;;;;;;;;;;;;;16.44;68.15;101266.22;145002;921;1019;-85
2021/11/03 05:27:36;;;;;;;;;;;;;;;16.46;67.53;101256.63;145002;919;1020;-86
2021/11/03 05:30:03;;;;;;;;;;;;;;;16.47;67.31;101261.00;145002;917;1022;-85
2021/11/03 05:32:29;;;;;;;;;;;;;;;16.46;67.70;101265.38;145002;920;1020;-86
2021/11/03 05:34:55;;;;;;;;;;;;;;;16.48;67.52;101273.22;145002;921;1019;-84
2021/11/03 05:37:21;;;;;;;;;;;;;;;16.51;67.29;101265.41;145002;915;1022;-84
2021/11/03 05:39:47;;;;;;;;;;;;;;;16.55;67.39;101287.34;145002;922;1019;-85
2021/11/03 05:42:13;;;;;;;;;;;;;;;16.59;66.98;101287.41;145002;916;1021;-85
2021/11/03 05:44:39;;;;;;;;;;;;;;;16.66;67.06;101298.84;145002;917;1016;-84
2021/11/03 05:47:06;;;;;;;;;;;;;;;16.73;67.27;101305.03;145002;915;1019;-90
2021/11/03 05:49:33;;;;;;;;;;;;;;;16.79;66.78;101306.00;145002;922;1020;-86
2021/11/03 05:51:59;;;;;;;;;;;;;;;16.88;66.40;101318.41;145002;919;1020;-85
2021/11/03 05:54:26;;;;;;;;;;;;;;;16.95;66.82;101330.72;145002;921;1017;-87
2021/11/03 05:56:53;;;;;;;;;;;;;;;17.03;66.74;101336.94;145002;920;1023;-87
2021/11/03 05:59:19;;;;;;;;;;;;;;;17.12;66.66;101337.94;145002;921;1019;-86
2021/11/03 06:01:46;;;;;;;;;;;;;;;17.20;66.54;101331.06;145002;915;1018;-86
2021/11/03 06:04:12;;;;;;;;;;;;;;;17.28;66.52;101332.03;145002;922;1017;-86
2021/11/03 06:06:38;;;;;;;;;;;;;;;17.39;66.20;101327.78;145003;915;1020;-86
2021/11/03 06:09:04;;;;;;;;;;;;;;;17.51;66.48;101331.41;145003;921;1019;-81
2021/11/03 06:11:31;;;;;;;;;;;;;;;17.64;66.49;101335.03;145003;920;1018;-85
2021/11/03 06:13:57;;;;;;;;;;;;;;;17.73;66.28;101346.50;145002;921;2000;-84
2021/11/03 06:16:23;;;;;;;;;;;;;;;17.86;66.23;101355.37;145003;915;1019;-85
2021/11/03 06:18:51;;;;;;;;;;;;;;;17.97;65.85;101352.91;145003;921;1019;-86
2021/11/03 06:21:18;;;;;;;;;;;;;;;18.11;65.91;101355.66;145003;919;1020;-85
2021/11/03 06:23:44;;;;;;;;;;;;;;;18.07;65.96;101357.38;145003;921;1017;-86
2021/11/03 06:26:11;;;;;;;;;;;;;;;18.10;66.01;101362.66;145003;916;1021;-87
2021/11/03 06:28:37;;;;;;;;;;;;;;;18.23;66.34;101361.03;145003;921;1020;-86
2021/11/03 06:31:03;;;;;;;;;;;;;;;18.38;66.49;101375.16;145003;915;1017;-84
2021/11/03 06:33:29;;;;;;;;;;;;;;;18.58;65.97;101383.19;145002;918;2000;-84
2021/11/03 06:35:56;;;;;;;;;;;;;;;18.79;65.75;101377.22;145002;919;1017;-85
2021/11/03 06:38:22;;;;;;;;;;;;;;;19.01;65.84;101379.13;145002;921;1020;-85
2021/11/03 06:40:48;;;;;;;;;;;;;;;19.27;65.46;101386.25;145002;920;1017;-86
2021/11/03 06:43:14;;;;;;;;;;;;;;;19.51;65.56;101398.63;145002;917;1017;-86
2021/11/03 06:45:41;;;;;;;;;;;;;;;19.73;65.32;101404.84;145002;920;1020;-86
2021/11/03 06:48:07;;;;;;;;;;;;;;;19.97;65.19;101399.69;145002;922;1021;-86
2021/11/03 06:50:34;;;;;;;;;;;;;;;20.20;65.15;101405.88;145002;919;1022;-86
2021/11/03 06:53:02;;;;;;;;;;;;;;;20.42;64.80;101401.47;145002;921;1020;-86
2021/11/03 06:55:29;;;;;;;;;;;;;;;20.65;64.63;101400.63;145002;920;1019;-86
2021/11/03 06:57:56;;;;;;;;;;;;;;;20.85;64.48;101395.28;145002;921;1017;-88
2021/11/03 07:00:24;;;;;;;;;;;;;;;21.00;64.10;101395.28;145002;919;1019;-87
2021/11/03 07:02:50;;;;;;;;;;;;;;;21.15;63.80;101398.75;145002;922;1020;-86
2021/11/03 07:05:16;;;;;;;;;;;;;;;21.29;63.55;101398.69;145002;915;1019;-87
2021/11/03 07:07:42;;;;;;;;;;;;;;;21.44;63.40;101414.47;145002;917;1017;-86
2021/11/03 07:10:09;;;;;;;;;;;;;;;21.56;63.22;101409.16;145002;915;1017;-85
2021/11/03 07:12:36;;;;;;;;;;;;;;;21.72;63.09;101417.03;145002;921;1021;-87
2021/11/03 07:15:05;;;;;;;;;;;;;;;21.91;63.26;101409.87;145002;920;1018;-88
2021/11/03 07:17:32;;;;;;;;;;;;;;;22.15;63.01;101407.94;145002;922;1016;-86
2021/11/03 07:19:58;;;;;;;;;;;;;;;22.35;62.60;101403.41;145002;919;1019;-87
2021/11/03 07:22:24;;;;;;;;;;;;;;;22.52;62.69;101415.63;145002;917;1021;-86
2021/11/03 07:24:50;;;;;;;;;;;;;;;22.64;62.29;101418.16;145002;920;1021;-87
2021/11/03 07:27:16;;;;;;;;;;;;;;;22.77;62.12;101425.06;145002;921;1020;-86
2021/11/03 07:29:42;;;;;;;;;;;;;;;22.89;62.17;101424.09;145002;915;1021;-84
2021/11/03 07:32:09;;;;;;;;;;;;;;;22.92;61.73;101432.00;145002;917;1022;-86
2021/11/03 07:34:35;;;;;;;;;;;;;;;22.97;61.76;101445.16;145002;919;1019;-84
2021/11/03 07:37:01;;;;;;;;;;;;;;;23.05;61.72;101445.09;145002;917;1016;-89
2021/11/03 07:39:27;;;;;;;;;;;;;;;23.14;61.36;101439.75;145002;920;1018;-85
2021/11/03 07:41:54;;;;;;;;;;;;;;;23.24;61.53;101445.81;145002;917;1020;-85
2021/11/03 07:44:20;;;;;;;;;;;;;;;23.31;61.19;101448.38;145001;919;2000;-86
2021/11/03 07:46:46;;;;;;;;;;;;;;;23.41;61.27;101454.44;145002;917;1020;-85
2021/11/03 07:49:12;;;;;;;;;;;;;;;23.52;60.91;101462.25;145002;915;1021;-87
2021/11/03 07:51:38;;;;;;;;;;;;;;;23.61;60.85;101456.84;145002;921;1017;-86
2021/11/03 07:54:04;;;;;;;;;;;;;;;23.71;60.41;101457.59;145002;915;1020;-86
2021/11/03 07:56:31;;;;;;;;;;;;;;;23.81;60.37;101461.88;145002;921;1021;-86
2021/11/03 07:58:58;;;;;;;;;;;;;;;23.91;60.50;101454.72;145002;919;1020;-86
2021/11/03 08:01:24;;;;;;;;;;;;;;;24.02;59.97;101454.53;145002;922;1020;-86
2021/11/03 08:03:51;;;;;;;;;;;;;;;24.11;59.80;101453.56;145002;919;1021;-85
2021/11/03 08:06:17;;;;;;;;;;;;;;;24.20;60.19;101458.72;145002;921;1020;-84
2021/11/03 08:08:49;;;;;;;;;;;;;;;24.29;59.75;101455.91;145002;920;1017;-88
2021/11/03 08:11:15;;;;;;;;;;;;;;;24.39;59.95;101452.22;145002;921;1020;-88
2021/11/03 08:13:43;;;;;;;;;;;;;;;24.47;59.25;101449.44;145002;915;1018;-88
2021/11/03 08:16:10;;;;;;;;;;;;;;;24.48;59.09;101445.88;145002;922;1020;-86
2021/11/03 08:18:41;;;;;;;;;;;;;;;24.55;59.24;101439.56;145002;919;1020;-86
2021/11/03 08:21:07;;;;;;;;;;;;;;;24.60;59.19;101437.75;145002;921;1017;-85
2021/11/03 08:23:33;;;;;;;;;;;;;;;24.67;59.14;101435.84;145002;920;1020;-86
2021/11/03 08:25:59;;;;;;;;;;;;;;;24.77;59.21;101442.75;145002;917;1020;-84
2021/11/03 08:28:25;;;;;;;;;;;;;;;24.82;58.88;101437.37;145002;919;1020;-87
2021/11/03 08:30:53;;;;;;;;;;;;;;;24.92;58.93;101443.37;145002;924;1020;-86
2021/11/03 08:33:36;;;;;;;;;;;;;;;25.03;58.85;101440.53;145002;920;1018;-86
2021/11/03 08:36:03;;;;;;;;;;;;;;;25.16;58.79;101434.06;145002;921;1018;-87
2021/11/03 08:38:29;;;;;;;;;;;;;;;25.22;58.38;101438.41;145002;920;1020;-87
2021/11/03 08:40:55;;;;;;;;;;;;;;;25.25;57.82;101433.03;145002;917;1019;-87
2021/11/03 08:43:23;;;;;;;;;;;;;;;25.25;58.22;101422.41;145002;919;1017;-88
2021/11/03 08:45:50;;;;;;;;;;;;;;;25.27;57.77;101431.22;145002;922;1020;-87
2021/11/03 08:48:17;;;;;;;;;;;;;;;25.29;58.03;101425.00;145002;920;1020;-87
2021/11/03 08:50:43;;;;;;;;;;;;;;;25.31;57.43;101425.84;145002;921;1021;-87
2021/11/03 08:53:09;;;;;;;;;;;;;;;25.24;57.41;101426.81;145002;920;1021;-86
2021/11/03 08:55:37;;;;;;;;;;;;;;;25.24;57.38;101425.94;145002;922;1020;-85
2021/11/03 08:58:05;;;;;;;;;;;;;;;25.25;57.01;101431.25;145002;919;1020;-86
2021/11/03 09:00:33;;;;;;;;;;;;;;;25.10;56.05;101427.13;145002;922;1021;-84
2021/11/03 09:02:59;;;;;;;;;;;;;;;24.84;56.33;101427.59;145002;920;1020;-84
2021/11/03 09:05:27;;;;;;;;;;;;;;;24.67;56.04;101432.31;145002;917;1019;-86
2021/11/03 09:07:53;;;;;;;;;;;;;;;24.55;55.52;101426.31;145002;920;1017;-86
2021/11/03 09:10:20;;;;;;;;;;;;;;;24.40;55.40;101415.94;145002;922;1021;-87
2021/11/03 09:12:47;;;;;;;;;;;;;;;24.24;55.78;101416.22;145002;919;1021;-87
2021/11/03 09:15:13;;;;;;;;;;;;;;;24.20;55.33;101410.97;145002;921;1017;-87
2021/11/03 09:17:39;;;;;;;;;;;;;;;24.01;53.00;101407.75;145002;916;1017;-88
2021/11/03 09:20:06;;;;;;;;;;;;;;;24.00;55.68;101411.28;145002;921;1019;-87
2021/11/03 09:22:34;;;;;;;;;;;;;;;23.89;55.36;101409.69;145002;919;1018;-86
2021/11/03 09:25:00;;;;;;;;;;;;;;;23.84;55.35;101406.19;145002;922;1020;-84
2021/11/03 09:27:26;;;;;;;;;;;;;;;23.65;55.49;101400.25;145002;919;1017;-88
2021/11/03 09:29:52;;;;;;;;;;;;;;;23.67;54.95;101400.22;145002;917;1020;-86
2021/11/03 09:32:20;;;;;;;;;;;;;;;23.71;54.32;101401.94;145002;920;1020;-88
2021/11/03 09:34:47;;;;;;;;;;;;;;;23.51;54.55;101397.81;145001;921;2000;-88
2021/11/03 09:37:15;;;;;;;;;;;;;;;23.27;54.24;101393.66;145002;919;1019;-90
2021/11/03 09:39:42;;;;;;;;;;;;;;;23.00;54.83;101387.78;145002;922;1018;-87
2021/11/03 09:42:12;;;;;;;;;;;;;;;23.17;54.83;101387.59;145002;921;1018;-87
2021/11/03 09:44:38;;;;;;;;;;;;;;;23.09;54.28;101392.13;145002;921;1016;-88
2021/11/03 09:47:20;;;;;;;;;;;;;;;22.87;54.98;101396.75;145002;920;1020;-87
2021/11/03 09:49:53;;;;;;;;;;;;;;;22.60;55.70;101390.81;145002;921;1017;-88
2021/11/03 09:52:22;;;;;;;;;;;;;;;22.51;56.12;101382.09;145002;919;1017;-87
2021/11/03 09:54:50;;;;;;;;;;;;;;;22.41;55.84;101383.97;145002;922;1018;-86
2021/11/03 09:57:48;;;;;;;;;;;;;;;22.35;56.22;101389.28;145002;919;1021;-86
2021/11/03 10:00:37;;;;;;;;;;;;;;;22.48;54.62;101390.06;145002;922;1019;-87
2021/11/03 10:03:29;;;;;;;;;;;;;;;22.37;55.19;101393.69;145002;920;1020;-86
2021/11/03 10:06:30;;;;;;;;;;;;;;;22.41;54.53;101387.50;145002;921;1019;-85
2021/11/03 10:08:56;;;;;;;;;;;;;;;22.41;54.76;101390.16;145002;920;1020;-85
2021/11/03 10:11:33;;;;;;;;;;;;;;;22.39;55.31;101394.56;145002;921;1017;-84
2021/11/03 10:14:00;;;;;;;;;;;;;;;22.29;55.70;101390.22;145002;919;1020;-84
2021/11/03 10:16:32;;;;;;;;;;;;;;;22.32;55.96;101384.94;145002;922;1019;-84
2021/11/03 10:19:06;;;;;;;;;;;;;;;22.33;55.54;101380.50;145002;919;1019;-87
2021/11/03 10:21:52;;;;;;;;;;;;;;;22.31;55.43;101382.28;145002;921;1018;-89
2021/11/03 10:24:30;;;;;;;;;;;;;;;22.37;55.64;101384.91;145002;920;1023;-83
2021/11/03 10:26:59;;;;;;;;;;;;;;;22.29;55.98;101377.00;145002;921;1019;-83
2021/11/03 10:29:28;;;;;;;;;;;;;;;22.05;56.03;101386.88;145002;919;1022;-89
2021/11/03 10:31:59;;;;;;;;;;;;;;;21.96;54.50;101376.34;145002;922;1019;-88
2021/11/03 10:34:45;;;;;;;;;;;;;;;22.10;55.71;101361.25;145002;919;1019;-86
2021/11/03 10:37:21;;;;;;;;;;;;;;;22.26;54.64;101361.16;145002;922;1018;-84
2021/11/03 10:39:57;;;;;;;;;;;;;;;22.27;55.13;101353.19;145002;920;1017;-87
2021/11/03 10:43:02;;;;;;;;;;;;;;;22.30;55.78;101341.72;145002;921;1017;-87
2021/11/03 10:45:33;;;;;;;;;;;;;;;22.56;54.28;101341.50;145002;919;1019;-88
2021/11/03 10:48:10;;;;;;;;;;;;;;;22.64;54.24;101342.28;145002;921;1018;-87
2021/11/03 10:50:41;;;;;;;;;;;;;;;22.64;53.31;101339.63;145002;919;1020;-86
2021/11/03 10:53:25;;;;;;;;;;;;;;;22.60;53.77;101332.63;145002;922;1021;-88
2021/11/03 10:56:10;;;;;;;;;;;;;;;22.59;53.75;101322.94;145002;923;1022;-85
2021/11/03 10:58:59;;;;;;;;;;;;;;;22.48;54.89;101331.87;145002;921;1021;-81
2021/11/03 11:01:45;;;;;;;;;;;;;;;22.59;54.65;101330.03;145002;919;1022;-87
2021/11/03 11:04:13;;;;;;;;;;;;;;;22.77;55.15;101331.56;145002;921;1019;-86
2021/11/03 11:06:41;;;;;;;;;;;;;;;23.07;54.02;101335.63;145002;919;1022;-86
2021/11/03 11:09:19;;;;;;;;;;;;;;;23.20;53.30;101332.88;145002;922;1021;-86
2021/11/03 11:11:47;;;;;;;;;;;;;;;23.24;53.06;101335.47;145002;919;1018;-85
2021/11/03 11:14:18;;;;;;;;;;;;;;;23.25;52.69;101337.19;145002;922;1019;-85
2021/11/03 11:16:49;;;;;;;;;;;;;;;23.32;52.95;101343.28;145002;920;1021;-85
2021/11/03 11:19:40;;;;;;;;;;;;;;;23.33;52.79;101345.91;145002;921;1022;-85
2021/11/03 11:22:24;;;;;;;;;;;;;;;23.31;52.54;101339.75;145002;920;1020;-84
2021/11/03 11:24:58;;;;;;;;;;;;;;;23.34;51.96;101337.06;145002;925;1021;-84
2021/11/03 11:27:34;;;;;;;;;;;;;;;23.26;52.59;101332.78;145002;919;1019;-84
2021/11/03 11:30:26;;;;;;;;;;;;;;;23.32;52.90;101343.28;145002;921;1019;-85
2021/11/03 11:33:10;;;;;;;;;;;;;;;23.41;52.60;101332.56;145002;919;1019;-85
2021/11/03 11:35:52;;;;;;;;;;;;;;;23.52;53.12;101337.72;145002;926;1018;-86
2021/11/03 11:38:26;;;;;;;;;;;;;;;23.61;53.18;101334.94;145001;920;1998;-87
2021/11/03 11:40:57;;;;;;;;;;;;;;;23.72;52.70;101332.13;145002;923;1020;-85
2021/11/03 11:43:46;;;;;;;;;;;;;;;23.71;52.43;101331.25;145002;922;1019;-87
2021/11/03 11:46:14;;;;;;;;;;;;;;;23.65;52.51;101322.50;145002;919;1020;-87
2021/11/03 11:48:40;;;;;;;;;;;;;;;23.65;52.18;101325.16;145002;917;1021;-85
2021/11/03 11:51:26;;;;;;;;;;;;;;;23.60;52.54;101319.94;145002;920;1021;-87
2021/11/03 11:54:12;;;;;;;;;;;;;;;23.53;52.30;101320.94;145002;922;1019;-84
2021/11/03 11:56:38;;;;;;;;;;;;;;;23.35;50.15;101317.66;145002;919;1019;-87
2021/11/03 11:59:07;;;;;;;;;;;;;;;23.30;52.53;101321.25;145001;918;2002;-85
2021/11/03 12:01:42;;;;;;;;;;;;;;;23.22;52.57;101317.84;145002;922;1020;-86
2021/11/03 12:04:28;;;;;;;;;;;;;;;23.13;48.88;101314.41;145002;919;1021;-88
2021/11/03 12:07:13;;;;;;;;;;;;;;;23.14;48.89;101318.78;145002;922;1026;-85
2021/11/03 12:10:02;;;;;;;;;;;;;;;23.27;51.42;101319.50;145002;920;1020;-83
2021/11/03 12:12:29;;;;;;;;;;;;;;;23.25;50.63;101308.06;145002;921;1022;-85
2021/11/03 12:14:55;;;;;;;;;;;;;;;23.29;49.24;101320.38;145002;920;1019;-85
2021/11/03 12:17:43;;;;;;;;;;;;;;;23.18;49.08;101315.22;145002;921;1021;-84
2021/11/03 12:20:46;;;;;;;;;;;;;;;23.17;48.07;101310.81;145002;919;1017;-85
2021/11/03 12:23:32;;;;;;;;;;;;;;;23.04;48.18;101303.03;145002;922;1020;-82
2021/11/03 12:26:18;;;;;;;;;;;;;;;23.00;48.11;101307.47;145002;919;1020;-85
2021/11/03 12:29:06;;;;;;;;;;;;;;;22.94;47.46;101297.84;145002;921;1019;-86
2021/11/03 12:32:07;;;;;;;;;;;;;;;22.79;48.51;101296.25;145002;920;1021;-84
2021/11/03 12:34:38;;;;;;;;;;;;;;;22.76;48.45;101293.63;145002;921;1018;-85
2021/11/03 12:37:23;;;;;;;;;;;;;;;22.75;48.05;101289.25;145002;920;1022;-84
2021/11/03 12:39:55;;;;;;;;;;;;;;;22.93;47.87;101288.16;145002;921;1020;-86
2021/11/03 12:42:26;;;;;;;;;;;;;;;22.86;47.56;101289.12;145002;919;1023;-85
2021/11/03 12:44:56;;;;;;;;;;;;;;;22.85;47.67;101281.22;145002;922;1019;-85
2021/11/03 12:47:23;;;;;;;;;;;;;;;22.87;47.70;101285.56;145002;898;1019;-85
2021/11/03 12:50:00;;;;;;;;;;;;;;;22.86;47.86;101285.59;145002;921;1021;-86
2021/11/03 12:52:26;;;;;;;;;;;;;;;22.82;48.03;101288.28;145002;920;1022;-83
2021/11/03 12:54:53;;;;;;;;;;;;;;;22.68;49.20;101289.34;145002;921;1019;-85
2021/11/03 12:57:22;;;;;;;;;;;;;;;22.53;49.93;101288.63;145002;919;1022;-86
2021/11/03 13:00:04;;;;;;;;;;;;;;;22.43;51.00;101290.47;145002;922;1022;-84